Time;durP1;ratioP1;P1;durP2;ratioP2;P2;SDS_P1;SDS_P2;PMS_P1;PMS_P2;Temp;Humidity;BMP_temperature;BMP_pressure;BME280_temperature;BME280_humidity;BME280_pressure;Samples;Min_cycle;Max_cycle;Signal;HPM_P1;HPM_P2
2022/05/19 00:01:15;;;;;;;87.50;63.95;;;16.00;99.90;;;;;;6300090;28;20055;-67
2022/05/19 00:04:17;;;;;;;82.90;62.78;;;15.90;99.90;;;;;;6299911;28;20127;-67
2022/05/19 00:07:19;;;;;;;89.63;64.88;;;15.80;99.90;;;;;;6287991;28;20514;-67
2022/05/19 00:10:23;;;;;;;87.28;67.78;;;15.70;99.90;;;;;;6275938;28;20045;-67
2022/05/19 00:13:25;;;;;;;84.57;61.95;;;15.70;99.90;;;;;;6276388;28;20140;-67
2022/05/19 00:16:28;;;;;;;94.85;67.68;;;15.70;99.90;;;;;;6299415;28;20105;-67
2022/05/19 00:19:29;;;;;;;85.68;64.55;;;15.70;99.90;;;;;;6286946;28;20194;-67
2022/05/19 00:22:31;;;;;;;91.28;67.20;;;15.70;99.90;;;;;;6299391;28;20198;-68
2022/05/19 00:25:35;;;;;;;93.68;70.13;;;15.70;99.90;;;;;;6299320;28;20183;-67
2022/05/19 00:28:37;;;;;;;115.65;78.20;;;15.60;99.90;;;;;;6299598;28;20484;-67
2022/05/19 00:31:39;;;;;;;120.32;81.65;;;15.60;99.90;;;;;;6300088;28;20068;-67
2022/05/19 00:34:40;;;;;;;116.25;79.45;;;15.50;99.90;;;;;;6297565;28;20131;-67
2022/05/19 00:37:42;;;;;;;114.70;81.82;;;15.60;99.90;;;;;;6297736;28;20045;-67
2022/05/19 00:40:53;;;;;;;112.03;77.90;;;15.50;99.90;;;;;;6299735;28;20095;-67
2022/05/19 00:43:59;;;;;;;107.68;78.70;;;15.50;99.90;;;;;;6297471;28;20049;-67
2022/05/19 00:47:01;;;;;;;102.15;79.07;;;15.50;99.90;;;;;;6298411;28;20049;-67
2022/05/19 00:50:05;;;;;;;106.30;78.63;;;15.50;99.90;;;;;;6299612;28;20051;-67
2022/05/19 00:53:08;;;;;;;;;;;15.50;99.90;;;;;;6299586;28;20045;-67
2022/05/19 00:56:15;;;;;;;110.50;79.80;;;15.60;99.90;;;;;;6292106;28;19943;-67
2022/05/19 00:59:24;;;;;;;99.72;75.22;;;15.60;99.90;;;;;;6274518;28;20055;-67
2022/05/19 01:02:31;;;;;;;101.03;76.78;;;15.60;99.90;;;;;;6293442;28;20101;-68
2022/05/19 01:05:37;;;;;;;102.55;77.38;;;15.70;99.90;;;;;;6296930;28;20519;-68
2022/05/19 01:08:44;;;;;;;113.68;78.78;;;15.70;99.90;;;;;;6297763;28;20640;-67
2022/05/19 01:11:52;;;;;;;101.35;77.25;;;15.70;99.90;;;;;;6295680;28;20551;-67
2022/05/19 01:14:54;;;;;;;94.00;72.30;;;15.70;99.90;;;;;;6297372;28;20048;-67
2022/05/19 01:17:56;;;;;;;105.35;73.10;;;15.70;99.90;;;;;;6298353;28;20052;-67
2022/05/19 01:20:59;;;;;;;109.07;76.30;;;15.70;99.90;;;;;;6285167;28;20076;-67
2022/05/19 01:24:09;;;;;;;99.15;75.35;;;15.70;99.90;;;;;;6296936;28;20063;-67
2022/05/19 01:27:12;;;;;;;99.45;76.10;;;15.70;99.90;;;;;;6283329;28;20186;-67
2022/05/19 01:30:15;;;;;;;92.07;71.10;;;15.70;99.90;;;;;;6282754;28;20048;-67
2022/05/19 01:33:16;;;;;;;96.25;68.60;;;15.60;99.90;;;;;;6297565;28;20052;-66
2022/05/19 01:36:18;;;;;;;96.15;70.63;;;15.60;99.90;;;;;;6296780;28;20089;-67
2022/05/19 01:39:22;;;;;;;97.82;68.38;;;15.60;99.90;;;;;;6297535;28;20051;-67
2022/05/19 01:42:39;;;;;;;91.88;67.93;;;15.50;99.90;;;;;;6298104;28;20051;-67
2022/05/19 01:45:58;;;;;;;86.15;65.40;;;15.50;99.90;;;;;;6295971;28;20135;-68
2022/05/19 01:49:06;;;;;;;83.55;65.07;;;15.40;99.90;;;;;;6294204;28;20127;-68
2022/05/19 01:52:13;;;;;;;91.38;66.10;;;15.40;99.90;;;;;;6273092;28;20070;-67
2022/05/19 01:55:21;;;;;;;73.65;54.35;;;15.30;99.90;;;;;;6294538;28;20076;-68
2022/05/19 01:58:29;;;;;;;85.22;64.85;;;15.40;99.90;;;;;;6295429;28;20052;-67
2022/05/19 02:01:31;;;;;;;91.15;64.50;;;15.40;99.90;;;;;;6287741;28;20069;-67
2022/05/19 02:04:40;;;;;;;88.40;67.57;;;15.30;99.90;;;;;;6272722;28;20569;-67
2022/05/19 02:07:45;;;;;;;87.85;66.20;;;15.30;99.90;;;;;;6292745;28;20077;-67
2022/05/19 02:10:51;;;;;;;88.28;70.45;;;15.30;99.90;;;;;;6294097;28;20638;-67
2022/05/19 02:13:56;;;;;;;91.93;72.65;;;15.30;99.90;;;;;;6296572;28;20056;-68
2022/05/19 02:17:00;;;;;;;87.30;68.35;;;15.30;99.90;;;;;;6295993;28;20153;-67
2022/05/19 02:20:07;;;;;;;105.47;80.13;;;15.30;99.90;;;;;;6295593;28;20389;-67
2022/05/19 02:23:11;;;;;;;114.80;84.13;;;15.20;99.90;;;;;;6296323;28;20520;-67
2022/05/19 02:26:13;;;;;;;108.20;86.00;;;15.10;99.90;;;;;;6296141;28;20044;-67
2022/05/19 02:29:22;;;;;;;114.88;86.05;;;15.00;99.90;;;;;;6296496;28;20040;-67
2022/05/19 02:32:24;;;;;;;123.75;89.07;;;15.10;99.90;;;;;;6295451;28;20419;-67
2022/05/19 02:35:26;;;;;;;122.88;92.25;;;15.10;99.90;;;;;;6295728;28;20568;-66
2022/05/19 02:38:28;;;;;;;118.57;87.95;;;15.10;99.90;;;;;;6297011;28;20190;-67
2022/05/19 02:41:33;;;;;;;111.45;86.00;;;15.00;99.90;;;;;;6290168;28;20548;-67
2022/05/19 02:44:37;;;;;;;115.53;87.57;;;15.00;99.90;;;;;;6288124;28;20850;-67
2022/05/19 02:47:38;;;;;;;123.60;91.38;;;15.00;99.90;;;;;;6296641;28;20040;-67
2022/05/19 02:50:42;;;;;;;118.13;85.55;;;14.90;99.90;;;;;;6295613;28;20425;-67
2022/05/19 02:53:44;;;;;;;115.97;87.70;;;14.90;99.90;;;;;;6295101;28;20097;-67
2022/05/19 02:56:46;;;;;;;120.32;88.63;;;14.80;99.90;;;;;;6295568;28;20515;-67
2022/05/19 02:59:49;;;;;;;128.82;93.68;;;14.80;99.90;;;;;;6296291;28;20503;-68
2022/05/19 03:02:53;;;;;;;135.80;97.88;;;14.70;99.90;;;;;;6294938;28;20174;-67
2022/05/19 03:05:55;;;;;;;137.07;96.60;;;14.70;99.90;;;;;;6294203;28;20058;-67
2022/05/19 03:08:57;;;;;;;144.95;100.47;;;14.80;99.90;;;;;;6296522;28;20048;-67
2022/05/19 03:11:59;;;;;;;135.77;98.75;;;14.80;99.90;;;;;;6282383;28;20106;-67
2022/05/19 03:15:02;;;;;;;110.10;81.60;;;14.80;99.90;;;;;;6291160;28;20134;-67
2022/05/19 03:18:04;;;;;;;138.07;97.80;;;14.90;99.90;;;;;;6271966;28;20425;-67
2022/05/19 03:21:06;;;;;;;130.15;92.00;;;14.90;99.90;;;;;;6277326;28;20083;-67
2022/05/19 03:24:08;;;;;;;135.32;94.72;;;15.00;99.90;;;;;;6295405;28;20127;-68
2022/05/19 03:27:10;;;;;;;136.00;92.18;;;15.00;99.90;;;;;;6290972;28;20493;-67
2022/05/19 03:30:16;;;;;;;128.60;91.85;;;15.00;99.90;;;;;;6271423;28;20045;-67
2022/05/19 03:33:19;;;;;;;124.43;87.82;;;15.00;99.90;;;;;;6276864;28;20170;-67
2022/05/19 03:36:20;;;;;;;134.23;95.45;;;15.00;99.90;;;;;;6293500;28;20068;-66
2022/05/19 03:39:23;;;;;;;135.57;96.97;;;15.00;99.90;;;;;;6295948;28;20125;-66
2022/05/19 03:42:25;;;;;;;141.80;97.80;;;15.00;99.90;;;;;;6295909;28;20041;-66
2022/05/19 03:45:28;;;;;;;136.73;96.72;;;15.00;99.90;;;;;;6291790;28;20109;-67
2022/05/19 03:48:32;;;;;;;;;;;15.10;99.90;;;;;;6296542;28;20572;-66
2022/05/19 03:51:36;;;;;;;134.32;95.88;;;15.10;99.90;;;;;;6286831;28;19927;-67
2022/05/19 03:54:38;;;;;;;132.68;95.20;;;15.10;99.90;;;;;;6287651;28;20084;-67
2022/05/19 03:57:40;;;;;;;126.07;92.70;;;15.20;99.90;;;;;;6294778;28;20052;-66
2022/05/19 04:00:43;;;;;;;114.78;84.22;;;15.20;99.90;;;;;;6290750;28;20051;-66
2022/05/19 04:03:45;;;;;;;132.88;95.10;;;15.20;99.90;;;;;;6280811;28;20127;-67
2022/05/19 04:06:47;;;;;;;126.95;94.05;;;15.20;99.90;;;;;;6294911;28;20393;-66
2022/05/19 04:09:49;;;;;;;129.02;93.78;;;15.20;99.90;;;;;;6279894;28;20126;-66
2022/05/19 04:12:51;;;;;;;126.82;94.68;;;15.20;99.90;;;;;;6272566;28;20041;-66
2022/05/19 04:15:54;;;;;;;135.35;97.13;;;15.20;99.90;;;;;;6291286;28;20556;-66
2022/05/19 04:18:56;;;;;;;129.13;95.53;;;15.20;99.90;;;;;;6296057;28;20048;-68
2022/05/19 04:21:58;;;;;;;123.28;91.13;;;15.30;99.90;;;;;;6291104;28;20066;-67
2022/05/19 04:25:00;;;;;;;120.65;89.93;;;15.30;99.90;;;;;;6289149;28;20048;-66
2022/05/19 04:28:03;;;;;;;121.85;92.90;;;15.30;99.90;;;;;;6275051;28;20072;-66
2022/05/19 04:31:06;;;;;;;122.10;92.78;;;15.30;99.90;;;;;;6283618;28;20479;-67
2022/05/19 04:34:08;;;;;;;129.93;95.07;;;15.40;99.90;;;;;;6297608;28;20055;-67
2022/05/19 04:37:09;;;;;;;124.93;92.70;;;15.40;99.90;;;;;;6296531;28;20097;-67
2022/05/19 04:40:13;;;;;;;127.78;91.93;;;15.40;99.90;;;;;;6297232;28;20139;-67
2022/05/19 04:43:19;;;;;;;127.65;90.47;;;15.40;99.90;;;;;;6298960;28;20401;-66
2022/05/19 04:46:22;;;;;;;118.60;85.72;;;15.50;99.90;;;;;;6298771;28;20052;-67
2022/05/19 04:49:24;;;;;;;123.00;90.60;;;15.50;99.90;;;;;;6298265;28;20211;-66
2022/05/19 04:52:26;;;;;;;121.22;91.80;;;15.60;99.90;;;;;;6279488;28;20572;-66
2022/05/19 04:55:28;;;;;;;119.13;86.25;;;15.60;99.90;;;;;;6295866;28;20136;-67
2022/05/19 04:58:30;;;;;;;111.43;85.13;;;15.70;99.90;;;;;;6298914;28;20064;-66
2022/05/19 05:01:33;;;;;;;113.72;82.88;;;15.70;99.90;;;;;;6294110;28;20090;-66
2022/05/19 05:04:35;;;;;;;113.88;81.85;;;15.80;99.90;;;;;;6288852;28;20119;-66
2022/05/19 05:07:37;;;;;;;110.57;82.00;;;15.90;99.90;;;;;;6296489;28;20185;-67
2022/05/19 05:10:40;;;;;;;110.68;81.60;;;16.00;99.90;;;;;;6299058;28;20048;-67
2022/05/19 05:13:42;;;;;;;97.57;75.15;;;16.10;99.90;;;;;;6244944;28;74815;-67
2022/05/19 05:16:47;;;;;;;98.20;75.05;;;16.20;99.90;;;;;;6301105;28;20052;-67
2022/05/19 05:19:50;;;;;;;86.18;63.63;;;16.40;99.90;;;;;;6290879;28;20572;-66
2022/05/19 05:22:52;;;;;;;94.32;72.03;;;16.50;99.90;;;;;;6298170;28;20044;-66
2022/05/19 05:25:53;;;;;;;79.68;60.50;;;16.60;99.90;;;;;;6296188;28;20041;-66
2022/05/19 05:28:55;;;;;;;81.97;66.60;;;16.80;99.90;;;;;;6298448;28;20137;-66
2022/05/19 05:31:58;;;;;;;92.85;68.15;;;16.90;99.90;;;;;;6298659;28;20049;-66
2022/05/19 05:35:00;;;;;;;89.88;70.55;;;17.00;99.90;;;;;;6298300;28;20131;-66
2022/05/19 05:38:02;;;;;;;85.38;68.57;;;17.00;99.90;;;;;;6296092;28;20499;-67
2022/05/19 05:41:04;;;;;;;59.65;44.63;;;17.10;99.90;;;;;;6298193;28;20056;-66
2022/05/19 05:44:06;;;;;;;58.88;45.10;;;17.10;99.90;;;;;;6298258;28;20139;-67
2022/05/19 05:47:10;;;;;;;60.17;46.60;;;17.20;99.90;;;;;;6291409;28;20665;-67
2022/05/19 05:50:13;;;;;;;76.70;60.05;;;17.30;99.90;;;;;;6285611;28;20047;-67
2022/05/19 05:53:14;;;;;;;67.18;54.78;;;17.50;99.90;;;;;;6264555;28;20178;-67
2022/05/19 05:56:19;;;;;;;79.90;63.45;;;17.60;99.90;;;;;;6294051;28;20194;-69
2022/05/19 05:59:21;;;;;;;112.07;69.78;;;17.70;99.90;;;;;;6289951;28;20434;-67
2022/05/19 06:02:24;;;;;;;65.95;54.80;;;17.90;99.90;;;;;;6291665;28;20538;-66
2022/05/19 06:05:26;;;;;;;77.10;55.70;;;17.90;99.90;;;;;;6296839;28;20128;-71
2022/05/19 06:08:28;;;;;;;57.90;44.83;;;18.00;99.90;;;;;;6285978;28;20583;-71
2022/05/19 06:11:30;;;;;;;54.03;43.00;;;18.10;99.90;;;;;;6229744;28;20061;-70
2022/05/19 06:14:32;;;;;;;47.95;40.00;;;18.30;99.90;;;;;;6265893;28;20049;-70
2022/05/19 06:17:35;;;;;;;51.40;38.28;;;18.50;99.90;;;;;;6258233;28;20050;-71
2022/05/19 06:20:37;;;;;;;43.63;35.05;;;18.80;99.90;;;;;;6269966;28;20049;-70
2022/05/19 06:23:40;;;;;;;47.53;36.70;;;18.90;99.90;;;;;;6271140;28;20048;-71
2022/05/19 06:26:42;;;;;;;43.22;35.35;;;19.10;99.90;;;;;;6259799;28;20049;-72
2022/05/19 06:29:44;;;;;;;40.78;29.70;;;19.20;99.90;;;;;;6254451;28;20127;-70
2022/05/19 06:32:48;;;;;;;28.15;21.83;;;19.50;99.90;;;;;;6267452;28;20049;-70
2022/05/19 06:35:50;;;;;;;27.15;18.90;;;19.60;99.90;;;;;;6269415;28;20492;-69
2022/05/19 06:38:52;;;;;;;40.00;29.52;;;19.70;99.90;;;;;;6265289;28;20179;-69
2022/05/19 06:42:02;;;;;;;35.40;28.90;;;19.90;99.90;;;;;;6272171;28;20072;-68
2022/05/19 06:45:05;;;;;;;34.78;27.70;;;20.00;99.90;;;;;;6270674;28;20041;-70
2022/05/19 06:48:09;;;;;;;26.30;19.85;;;20.00;99.90;;;;;;6267743;28;20521;-67
2022/05/19 06:51:11;;;;;;;;;;;20.00;99.90;;;;;;6259383;28;20053;-68
2022/05/19 06:54:12;;;;;;;28.83;23.38;;;20.10;99.90;;;;;;6270602;28;19920;-67
2022/05/19 06:57:15;;;;;;;27.33;19.02;;;20.20;99.90;;;;;;6270336;28;20071;-68
2022/05/19 07:00:20;;;;;;;27.02;21.17;;;20.40;99.90;;;;;;6270834;28;20171;-67
2022/05/19 07:03:23;;;;;;;30.55;24.88;;;20.70;99.90;;;;;;6270186;28;20179;-67
2022/05/19 07:06:26;;;;;;;20.65;15.77;;;21.10;99.90;;;;;;6266379;28;20455;-68
2022/05/19 07:09:27;;;;;;;26.75;21.20;;;21.20;99.90;;;;;;6271721;28;20054;-68
2022/05/19 07:12:29;;;;;;;30.95;25.40;;;21.30;99.90;;;;;;6257568;28;20417;-68
2022/05/19 07:15:31;;;;;;;26.63;22.10;;;21.60;99.90;;;;;;6269865;28;20045;-68
2022/05/19 07:18:34;;;;;;;19.77;15.88;;;22.00;99.90;;;;;;6266864;28;20091;-69
2022/05/19 07:21:35;;;;;;;25.17;22.35;;;22.40;99.90;;;;;;6270607;28;20051;-68
2022/05/19 07:24:37;;;;;;;26.17;18.98;;;22.70;99.90;;;;;;6270700;28;20494;-69
2022/05/19 07:27:39;;;;;;;26.05;19.30;;;22.80;99.90;;;;;;6267818;28;20154;-68
2022/05/19 07:30:43;;;;;;;19.50;13.50;;;22.90;99.90;;;;;;6270437;28;20041;-68
2022/05/19 07:33:46;;;;;;;;;;;22.90;99.90;;;;;;6268563;28;20497;-68
2022/05/19 07:36:49;;;;;;;25.90;21.38;;;22.80;99.90;;;;;;6260003;28;20297;-73
2022/05/19 07:39:51;;;;;;;24.95;22.17;;;22.60;99.90;;;;;;6270033;28;20485;-77
2022/05/19 07:42:53;;;;;;;25.27;20.90;;;22.00;99.90;;;;;;6268445;28;20083;-75
2022/05/19 07:45:55;;;;;;;25.02;20.70;;;21.80;99.90;;;;;;6262477;28;20049;-75
2022/05/19 07:48:59;;;;;;;24.02;19.67;;;21.90;99.90;;;;;;6271476;28;20049;-77
2022/05/19 07:52:01;;;;;;;23.65;19.73;;;22.20;99.90;;;;;;6269986;28;20488;-76
2022/05/19 07:55:04;;;;;;;24.35;19.52;;;22.20;99.90;;;;;;6268852;28;20049;-76
2022/05/19 07:58:06;;;;;;;19.25;16.40;;;22.20;99.90;;;;;;6270994;28;20086;-75
2022/05/19 08:01:08;;;;;;;24.77;20.33;;;22.30;99.90;;;;;;6275885;28;20055;-75
2022/05/19 08:04:12;;;;;;;25.63;19.23;;;22.30;99.90;;;;;;6274882;28;20049;-75
2022/05/19 08:07:14;;;;;;;20.92;15.18;;;22.30;99.90;;;;;;6273358;28;20131;-75
2022/05/19 08:10:23;;;;;;;21.48;17.00;;;22.30;99.90;;;;;;6275147;28;20056;-75
2022/05/19 08:16:44;;;;;;;20.63;17.38;;;22.10;99.90;;;;;;6274346;28;20128;-75
2022/05/19 08:19:48;;;;;;;19.95;16.75;;;22.00;99.90;;;;;;6274362;28;20459;-77
2022/05/19 08:22:50;;;;;;;21.70;16.63;;;21.90;99.90;;;;;;6274554;28;20516;-75
2022/05/19 08:25:52;;;;;;;10.40;7.85;;;21.60;99.90;;;;;;6272927;28;20587;-75
2022/05/19 08:28:53;;;;;;;20.40;15.52;;;21.50;99.90;;;;;;6271044;28;20484;-75
2022/05/19 08:31:56;;;;;;;27.10;21.33;;;21.50;99.90;;;;;;6273931;28;20077;-76
2022/05/19 08:34:59;;;;;;;25.85;22.02;;;21.20;99.90;;;;;;6274876;28;20527;-75
2022/05/19 08:38:01;;;;;;;10.02;7.97;;;20.80;99.90;;;;;;6269116;28;20210;-75
2022/05/19 08:41:07;;;;;;;24.67;19.60;;;20.60;99.90;;;;;;6273752;28;20040;-75
2022/05/19 08:44:14;;;;;;;26.52;23.67;;;20.60;99.90;;;;;;6272874;28;20102;-76
2022/05/19 08:47:21;;;;;;;39.05;30.30;;;20.40;99.90;;;;;;6263105;28;20174;-76
2022/05/19 08:50:37;;;;;;;48.03;36.97;;;20.00;99.90;;;;;;6269357;28;20498;-71
2022/05/19 08:53:42;;;;;;;48.78;37.33;;;19.50;99.90;;;;;;6273692;28;20057;-70
2022/05/19 08:56:50;;;;;;;51.72;39.33;;;19.30;99.90;;;;;;6272832;28;20416;-70
2022/05/19 09:00:02;;;;;;;53.50;40.58;;;19.10;99.90;;;;;;6265320;28;20059;-69
2022/05/19 09:03:13;;;;;;;60.17;43.17;;;18.80;99.90;;;;;;6267225;28;20045;-69
2022/05/19 09:06:29;;;;;;;52.05;40.53;;;18.70;99.90;;;;;;6273947;28;20041;-69
2022/05/19 09:09:43;;;;;;;62.97;45.75;;;18.80;99.90;;;;;;6274142;28;20049;-70
2022/05/19 09:12:49;;;;;;;54.42;46.67;;;18.70;99.90;;;;;;6265283;28;20484;-70
2022/05/19 09:15:52;;;;;;;51.33;41.33;;;18.70;99.90;;;;;;6273301;28;20041;-70
2022/05/19 09:19:00;;;;;;;53.00;44.87;;;18.80;99.90;;;;;;6270633;28;20052;-70
2022/05/19 09:22:07;;;;;;;51.83;42.50;;;19.00;99.90;;;;;;6252446;28;20194;-69
2022/05/19 09:25:12;;;;;;;49.10;42.67;;;19.10;99.90;;;;;;6272279;28;20045;-70
2022/05/19 09:28:14;;;;;;;49.70;42.78;;;19.30;99.90;;;;;;6271274;28;20131;-69
2022/05/19 09:31:33;;;;;;;55.43;44.33;;;19.40;99.90;;;;;;6271083;28;20128;-70
2022/05/19 09:34:36;;;;;;;53.38;41.33;;;19.60;99.90;;;;;;6271658;28;20118;-70
2022/05/19 09:37:42;;;;;;;50.38;42.03;;;19.70;99.90;;;;;;6252082;28;20057;-69
2022/05/19 09:40:47;;;;;;;53.75;41.67;;;19.80;99.90;;;;;;6248409;28;20049;-69
2022/05/19 09:43:53;;;;;;;48.60;41.53;;;19.90;99.90;;;;;;6264252;28;20081;-70
2022/05/19 09:46:55;;;;;;;48.95;40.67;;;20.00;99.90;;;;;;6267337;28;20185;-67
2022/05/19 09:50:06;;;;;;;47.22;39.30;;;20.10;99.90;;;;;;6270396;28;20077;-69
2022/05/19 09:53:17;;;;;;;43.53;38.20;;;20.20;99.90;;;;;;6266171;28;20523;-69
2022/05/19 09:56:22;;;;;;;40.72;36.05;;;20.30;99.90;;;;;;6272987;28;20045;-69
2022/05/19 09:59:26;;;;;;;42.75;35.67;;;20.30;99.90;;;;;;6264444;28;20045;-71
2022/05/19 10:02:32;;;;;;;41.47;36.55;;;20.40;99.90;;;;;;6262406;28;20115;-71
2022/05/19 10:05:39;;;;;;;30.33;24.55;;;20.50;99.90;;;;;;6268034;28;20041;-71
2022/05/19 10:08:44;;;;;;;33.50;28.75;;;20.70;99.90;;;;;;6249955;28;20049;-72
2022/05/19 10:11:49;;;;;;;32.15;27.42;;;20.80;99.90;;;;;;6253527;28;20107;-70
2022/05/19 10:14:59;;;;;;;30.73;25.52;;;21.00;99.90;;;;;;6268959;28;20049;-71
2022/05/19 10:18:13;;;;;;;30.35;23.98;;;21.00;99.90;;;;;;6269646;28;20516;-69
2022/05/19 10:21:34;;;;;;;26.58;23.52;;;21.10;99.90;;;;;;6262848;28;20044;-70
2022/05/19 10:24:57;;;;;;;28.80;24.05;;;21.30;99.90;;;;;;6259783;28;20052;-72
2022/05/19 10:31:42;;;;;;;27.75;22.75;;;21.70;99.90;;;;;;6263476;28;20497;-73
2022/05/19 10:34:58;;;;;;;25.35;21.60;;;21.80;99.90;;;;;;6225135;28;20127;-72
2022/05/19 10:38:34;;;;;;;23.23;20.50;;;21.90;99.90;;;;;;6296537;28;20108;-74
2022/05/19 10:41:52;;;;;;;25.60;20.73;;;22.00;99.90;;;;;;6288572;28;20441;-72
2022/05/19 10:45:16;;;;;;;22.48;19.23;;;22.00;99.90;;;;;;6292969;28;20465;-71
2022/05/19 10:48:47;;;;;;;23.73;19.27;;;22.00;99.90;;;;;;6294861;28;20067;-72
2022/05/19 10:52:03;;;;;;;22.10;18.20;;;22.00;99.90;;;;;;6292030;28;20055;-72
2022/05/19 10:55:15;;;;;;;22.83;18.92;;;22.00;99.90;;;;;;6292526;28;20489;-73
2022/05/19 10:58:42;;;;;;;26.58;20.23;;;21.80;99.90;;;;;;6290411;28;20137;-71
2022/05/19 11:01:56;;;;;;;22.10;18.20;;;21.80;99.90;;;;;;6278228;28;20533;-72
2022/05/19 11:05:24;;;;;;;25.45;18.85;;;21.80;99.90;;;;;;6293504;28;20048;-72
2022/05/19 11:08:39;;;;;;;22.13;18.02;;;21.90;99.90;;;;;;6288475;28;20076;-72
2022/05/19 11:11:54;;;;;;;19.30;16.92;;;22.10;99.90;;;;;;6288091;28;20045;-73
2022/05/19 11:15:11;;;;;;;21.17;18.50;;;22.50;99.90;;;;;;6290092;28;20578;-73
2022/05/19 11:18:18;;;;;;;23.75;19.90;;;23.00;99.90;;;;;;6278946;28;20106;-72
2022/05/19 11:21:28;;;;;;;22.20;19.42;;;23.40;99.90;;;;;;6292049;28;20114;-75
2022/05/19 11:24:33;;;;;;;25.15;21.60;;;23.70;99.90;;;;;;6287905;28;20425;-71
2022/05/19 11:27:40;;;;;;;25.20;22.50;;;23.90;99.90;;;;;;6286911;28;20554;-71
2022/05/19 11:30:50;;;;;;;27.58;21.63;;;24.00;99.90;;;;;;6280499;28;20102;-71
2022/05/19 11:33:55;;;;;;;24.02;19.25;;;24.20;99.90;;;;;;6283807;28;20056;-71
2022/05/19 11:37:06;;;;;;;25.92;22.13;;;24.30;99.90;;;;;;6290537;28;20566;-71
2022/05/19 11:40:15;;;;;;;29.58;24.42;;;24.40;99.90;;;;;;6296691;28;20079;-72
2022/05/19 11:43:25;;;;;;;13.00;10.43;;;24.60;99.90;;;;;;6296072;28;20056;-72
2022/05/19 11:46:33;;;;;;;25.15;21.77;;;24.60;99.90;;;;;;6300109;28;20386;-72
2022/05/19 11:56:24;;;;;;;14.75;13.10;;;24.80;99.90;;;;;;6300466;28;20032;-72
2022/05/19 11:59:27;;;;;;;12.60;11.23;;;24.90;99.90;;;;;;6299391;28;20056;-72
2022/05/19 12:02:37;;;;;;;11.33;8.83;;;24.90;99.90;;;;;;6285478;28;20115;-71
2022/05/19 12:05:43;;;;;;;22.88;20.35;;;24.90;99.90;;;;;;6282025;28;21034;-72
2022/05/19 12:08:56;;;;;;;22.38;19.38;;;24.90;99.90;;;;;;6298271;28;20049;-72
2022/05/19 12:12:01;;;;;;;17.98;15.52;;;24.90;99.90;;;;;;6292169;28;20178;-71
2022/05/19 12:15:18;;;;;;;15.90;12.70;;;25.00;99.90;;;;;;6297211;28;20048;-71
2022/05/19 12:18:44;;;;;;;11.88;10.00;;;25.20;99.90;;;;;;6299187;28;20049;-72
2022/05/19 12:21:55;;;;;;;14.93;12.10;;;25.30;99.90;;;;;;6298726;28;20045;-72
2022/05/19 12:25:09;;;;;;;8.18;6.50;;;25.40;99.40;;;;;;6297449;28;20048;-73
2022/05/19 12:28:33;;;;;;;12.00;10.25;;;25.40;99.00;;;;;;6294231;28;20504;-73
2022/05/19 12:35:08;;;;;;;10.10;6.80;;;25.40;98.90;;;;;;6260317;28;20051;-72
2022/05/19 12:38:30;;;;;;;12.00;10.68;;;25.50;98.70;;;;;;6298031;28;20101;-72
2022/05/19 12:41:38;;;;;;;14.65;11.98;;;25.40;98.40;;;;;;6288146;28;20191;-72
2022/05/19 12:44:46;;;;;;;7.78;5.70;;;25.50;98.10;;;;;;6288990;28;20083;-71
2022/05/19 12:47:59;;;;;;;12.13;9.00;;;25.60;98.30;;;;;;6278578;28;20052;-72
2022/05/19 12:51:15;;;;;;;12.30;9.75;;;25.60;97.90;;;;;;6276174;28;20055;-72
2022/05/19 12:54:19;;;;;;;6.22;5.63;;;25.70;97.90;;;;;;6282761;28;20044;-72
2022/05/19 12:57:29;;;;;;;9.48;6.78;;;25.60;97.90;;;;;;6296533;28;20136;-72
2022/05/19 13:00:36;;;;;;;6.50;4.88;;;25.60;97.90;;;;;;6298007;28;20088;-72
2022/05/19 13:03:41;;;;;;;8.93;7.22;;;25.50;98.10;;;;;;6299317;28;20127;-72
2022/05/19 13:06:51;;;;;;;5.85;5.22;;;25.40;97.60;;;;;;6298031;28;20048;-71
2022/05/19 13:09:57;;;;;;;7.18;5.40;;;25.30;97.90;;;;;;6297678;28;20087;-72
2022/05/19 13:13:03;;;;;;;8.43;5.57;;;25.20;98.10;;;;;;6296850;28;20123;-73
2022/05/19 13:16:12;;;;;;;5.20;4.70;;;25.10;98.20;;;;;;6296599;28;20044;-72
2022/05/19 13:19:19;;;;;;;7.00;5.43;;;25.00;98.30;;;;;;6293463;28;20049;-72
2022/05/19 13:22:25;;;;;;;9.32;5.32;;;24.90;98.10;;;;;;6297374;28;20128;-72
2022/05/19 13:25:28;;;;;;;11.77;5.20;;;24.80;98.20;;;;;;6298654;28;20105;-72
2022/05/19 13:31:52;;;;;;;9.40;6.78;;;24.70;98.20;;;;;;6281879;28;20041;-71
2022/05/19 13:34:55;;;;;;;7.93;6.78;;;24.50;98.40;;;;;;6280063;28;20488;-72
2022/05/19 13:38:00;;;;;;;10.82;8.77;;;24.40;98.70;;;;;;6290350;28;20133;-72
2022/05/19 13:41:04;;;;;;;12.73;8.93;;;24.20;99.10;;;;;;6291342;28;20056;-72
2022/05/19 13:44:10;;;;;;;11.77;8.07;;;24.00;99.30;;;;;;6273327;28;20501;-72
2022/05/19 13:47:16;;;;;;;7.30;5.63;;;23.90;99.90;;;;;;6274157;28;20131;-72
2022/05/19 13:50:23;;;;;;;18.52;14.43;;;23.80;99.90;;;;;;6275716;28;20045;-71
2022/05/19 13:53:29;;;;;;;21.30;14.82;;;23.50;99.90;;;;;;6292875;28;20131;-71
2022/05/19 13:56:37;;;;;;;15.63;11.18;;;23.10;99.90;;;;;;6285844;28;20512;-71
2022/05/19 13:59:40;;;;;;;8.40;5.80;;;22.30;99.90;;;;;;6276393;28;20070;-71
2022/05/19 14:02:42;;;;;;;14.13;10.27;;;21.80;99.90;;;;;;6293385;28;20092;-71
2022/05/19 14:05:45;;;;;;;12.10;7.17;;;21.60;99.90;;;;;;6296705;28;20044;-71
2022/05/19 14:08:49;;;;;;;8.38;5.72;;;21.40;99.90;;;;;;6296907;28;20041;-72
2022/05/19 14:12:09;;;;;;;7.85;4.35;;;21.00;99.90;;;;;;6289633;28;20477;-71
2022/05/19 14:15:20;;;;;;;9.05;4.32;;;20.40;99.90;;;;;;6297127;28;20504;-71
2022/05/19 14:18:25;;;;;;;6.18;4.53;;;19.90;99.90;;;;;;6296185;28;20615;-71
2022/05/19 14:21:29;;;;;;;11.68;6.35;;;19.60;99.90;;;;;;6285919;28;20519;-71
2022/05/19 14:24:34;;;;;;;10.50;5.80;;;19.40;99.90;;;;;;6295652;28;20051;-71
2022/05/19 14:27:39;;;;;;;12.02;7.05;;;19.30;99.90;;;;;;6297034;28;20127;-71
2022/05/19 14:30:43;;;;;;;11.25;7.95;;;19.30;99.90;;;;;;6295736;28;20133;-71
2022/05/19 14:33:57;;;;;;;14.45;7.20;;;19.10;99.90;;;;;;6291635;28;20118;-71
2022/05/19 14:37:00;;;;;;;15.60;9.60;;;19.00;99.90;;;;;;6285512;28;20044;-72
2022/05/19 14:43:37;;;;;;;16.67;11.15;;;18.60;99.90;;;;;;6286475;28;20119;-72
2022/05/19 14:46:43;;;;;;;24.15;11.90;;;18.40;99.90;;;;;;6279571;28;20052;-72
2022/05/19 14:49:49;;;;;;;25.20;14.02;;;18.30;99.90;;;;;;6284962;28;20527;-71
2022/05/19 14:52:56;;;;;;;25.13;17.05;;;18.20;99.90;;;;;;6272859;28;20421;-72
2022/05/19 14:56:04;;;;;;;27.00;19.80;;;18.10;99.90;;;;;;6293329;28;20095;-72
2022/05/19 14:59:10;;;;;;;19.98;16.70;;;18.00;99.90;;;;;;6229690;28;20054;-72
2022/05/19 15:02:12;;;;;;;21.13;14.95;;;17.90;99.90;;;;;;6292230;28;20051;-72
2022/05/19 15:05:14;;;;;;;12.95;11.65;;;17.90;99.90;;;;;;6293842;28;20123;-71
2022/05/19 15:08:16;;;;;;;15.35;10.85;;;17.80;99.90;;;;;;6293715;28;20044;-71
2022/05/19 15:11:20;;;;;;;15.10;11.70;;;17.80;99.90;;;;;;6291647;28;20075;-74
2022/05/19 15:14:22;;;;;;;13.73;9.75;;;17.70;99.90;;;;;;6294373;28;20110;-78
2022/05/19 15:17:25;;;;;;;7.95;6.03;;;17.90;99.90;;;;;;6295586;28;20045;-77
2022/05/19 15:20:30;;;;;;;10.45;5.78;;;17.90;99.90;;;;;;6292383;28;20121;-79
2022/05/19 15:23:32;;;;;;;14.73;6.82;;;18.20;99.90;;;;;;6294487;28;20044;-75
2022/05/19 15:26:35;;;;;;;20.63;8.40;;;18.30;99.90;;;;;;6293635;28;20131;-75
2022/05/19 15:29:39;;;;;;;18.80;8.45;;;18.20;99.90;;;;;;6280557;28;20052;-76
2022/05/19 15:32:41;;;;;;;13.68;7.53;;;18.00;99.90;;;;;;6294203;28;20048;-76
2022/05/19 15:35:43;;;;;;;11.93;6.50;;;18.10;99.90;;;;;;6293741;28;20630;-77
2022/05/19 15:38:45;;;;;;;12.75;6.70;;;18.00;99.90;;;;;;6279250;28;20106;-76
2022/05/19 15:41:49;;;;;;;9.48;6.60;;;18.10;99.90;;;;;;6277073;28;20040;-75
2022/05/19 15:44:51;;;;;;;11.63;5.50;;;18.20;99.90;;;;;;6294521;28;20044;-77
2022/05/19 15:47:56;;;;;;;11.02;6.35;;;18.30;99.90;;;;;;6294618;28;20398;-77
2022/05/19 15:50:58;;;;;;;5.88;3.17;;;18.50;99.90;;;;;;6284166;28;20129;-75
2022/05/19 15:54:00;;;;;;;5.68;3.40;;;18.90;99.90;;;;;;6295456;28;20072;-77
2022/05/19 15:57:03;;;;;;;8.25;2.95;;;19.50;99.90;;;;;;6291865;28;20040;-76
2022/05/19 16:00:07;;;;;;;7.10;2.67;;;20.00;99.90;;;;;;6270457;28;20070;-72
2022/05/19 16:03:10;;;;;;;8.43;3.10;;;20.40;99.90;;;;;;6295604;28;20066;-73
2022/05/19 16:06:14;;;;;;;8.52;4.57;;;20.70;99.90;;;;;;6294086;28;20135;-74